KCCR/CCR METAR and TAF weather

Enter ICAO airport designator
Station Type Date Time Source
KCCR METAR 2024/07/24 11:53 UTC NOAA

KCCR 241153Z AUTO 36005KT 10SM CLR 22/12 A2994 RMK AO2 SLP126 T02170117 10278 20217 53009


Station Type Date Time Source
KCCR Decoded METAR 2024/07/24 11:53 UTC NOAA

CONCORD BUCHANAN FIELD, CA, United States (KCCR) 38-00N 122-03W 11M
Jul 24, 2024 - 07:53 AM EDT / 2024.07.24 1153 UTC
Wind: from the N (360 degrees) at 6 MPH (5 KT):0
Visibility: 10 mile(s):0
Sky conditions: clear
Temperature: 71.1 F (21.7 C)
Dew Point: 53.1 F (11.7 C)
Relative Humidity: 52%
Pressure (altimeter): 29.94 in. Hg (1013 hPa)
Pressure tendency: 0.03 inches (0.9 hPa) higher than three hours ago
ob: KCCR 241153Z AUTO 36005KT 10SM CLR 22/12 A2994 RMK AO2 SLP126 T02170117 10278 20217 53009
cycle: 12

Station Type Date Time Source
KCCR TAF 2016/02/08 18:39 UTC NOAA